Time;durP1;ratioP1;P1;durP2;ratioP2;P2;SDS_P1;SDS_P2;PMS_P1;PMS_P2;Temp;Humidity;BMP_temperature;BMP_pressure;BME280_temperature;BME280_humidity;BME280_pressure;Samples;Min_cycle;Max_cycle;Signal;HPM_P1;HPM_P2
2022/01/14 00:02:18;;;;;;;28.23;13.33;;;;;;;0.52;94.94;101829.91;5034637;28;20044;-86
2022/01/14 00:04:44;;;;;;;37.58;15.63;;;;;;;0.45;94.71;101839.41;5034253;28;20030;-87
2022/01/14 00:07:10;;;;;;;32.28;14.52;;;;;;;0.39;95.51;101831.66;5032762;28;20041;-87
2022/01/14 00:09:37;;;;;;;31.58;14.77;;;;;;;0.30;95.31;101822.22;5040639;28;20033;-86
2022/01/14 00:12:10;;;;;;;27.13;13.35;;;;;;;0.26;96.20;101823.06;5058136;28;20064;-85
2022/01/14 00:17:03;;;;;;;30.15;13.57;;;;;;;0.19;96.01;101814.47;5054213;28;20061;-85
2022/01/14 00:19:28;;;;;;;28.88;14.02;;;;;;;0.16;95.87;101816.19;5057039;28;20037;-85
2022/01/14 00:21:54;;;;;;;28.38;13.68;;;;;;;0.12;96.13;101815.31;5049777;28;20024;-86
2022/01/14 00:32:18;;;;;;;32.28;13.57;;;;;;;0.01;96.27;101826.50;5031664;28;20041;-86
2022/01/14 00:34:44;;;;;;;31.27;14.13;;;;;;;-0.05;96.37;101825.59;5055311;28;20037;-86
2022/01/14 00:37:10;;;;;;;32.45;16.20;;;;;;;-0.05;97.00;101824.75;5039079;28;20038;-87
2022/01/14 00:39:38;;;;;;;31.15;14.57;;;;;;;-0.08;97.00;101820.44;5046875;28;20032;-86
2022/01/14 00:42:04;;;;;;;32.50;15.60;;;;;;;-0.08;97.29;101814.41;5035957;28;20194;-87
2022/01/14 00:44:30;;;;;;;32.83;14.45;;;;;;;-0.10;97.19;101822.16;5046203;28;20057;-86
2022/01/14 00:46:57;;;;;;;32.50;14.65;;;;;;;-0.04;97.58;101806.72;5065580;28;20025;-86
2022/01/14 00:49:23;;;;;;;28.95;14.20;;;;;;;-0.03;97.22;101812.72;5037236;28;20040;-86
2022/01/14 00:51:48;;;;;;;30.30;14.40;;;;;;;-0.07;96.69;101817.03;5038605;28;20041;-86
2022/01/14 00:54:16;;;;;;;32.03;15.13;;;;;;;-0.08;97.22;101823.00;5034891;28;20060;-86
2022/01/14 00:59:16;;;;;;;25.02;13.93;;;;;;;-0.26;96.05;101804.94;5037893;28;20068;-86
2022/01/14 01:01:50;;;;;;;27.40;13.80;;;;;;;-0.36;96.00;101798.91;5044088;28;20060;-87
2022/01/14 01:04:21;;;;;;;31.67;15.57;;;;;;;-0.38;96.27;101805.75;5024145;28;20038;-87
2022/01/14 01:06:48;;;;;;;30.15;15.38;;;;;;;-0.41;96.74;101804.88;5036131;28;20062;-86
2022/01/14 01:09:17;;;;;;;33.15;15.13;;;;;;;-0.39;96.41;101808.34;5027761;28;20029;-87
2022/01/14 01:11:51;;;;;;;30.20;14.93;;;;;;;-0.42;96.25;101798.88;5034859;28;20034;-86
2022/01/14 01:14:22;;;;;;;30.20;15.20;;;;;;;-0.52;96.49;101802.28;5035739;28;20041;-87
2022/01/14 01:17:01;;;;;;;31.13;15.18;;;;;;;-0.53;96.60;101813.44;5033448;28;20057;-87
2022/01/14 01:19:26;;;;;;;29.23;14.32;;;;;;;-0.58;96.27;101812.59;5038232;28;20381;-86
2022/01/14 01:21:53;;;;;;;31.70;16.20;;;;;;;-0.64;96.46;101807.41;5033817;28;20030;-87
2022/01/14 01:24:19;;;;;;;32.67;14.63;;;;;;;-0.63;96.70;101809.13;5034526;28;20013;-87
2022/01/14 01:26:45;;;;;;;29.38;15.07;;;;;;;-0.67;96.71;101815.13;5041352;28;20180;-87
2022/01/14 01:31:45;;;;;;;28.85;14.77;;;;;;;-0.69;96.82;101817.69;5037183;28;20034;-88
2022/01/14 01:34:15;;;;;;;31.08;13.60;;;;;;;-0.71;96.83;101808.22;5035035;28;20047;-87
2022/01/14 01:36:43;;;;;;;29.50;14.90;;;;;;;-0.70;96.92;101817.66;5026592;28;20037;-87
2022/01/14 01:39:16;;;;;;;29.17;13.52;;;;;;;-0.70;96.94;101825.41;5020015;28;20065;-87
2022/01/14 01:41:48;;;;;;;34.95;16.00;;;;;;;-0.57;98.09;101829.75;5032324;28;20025;-86
2022/01/14 01:44:16;;;;;;;30.98;14.82;;;;;;;-0.60;97.50;101840.03;5034747;28;20041;-86
2022/01/14 01:46:47;;;;;;;38.25;15.70;;;;;;;-0.54;98.39;101832.34;5034322;28;20041;-87
2022/01/14 01:49:15;;;;;;;35.05;16.70;;;;;;;-0.49;98.55;101839.22;5013874;28;20699;-86
2022/01/14 01:51:43;;;;;;;34.40;15.27;;;;;;;-0.49;98.25;101838.38;5032587;28;20055;-86
2022/01/14 01:54:09;;;;;;;33.28;14.93;;;;;;;-0.55;97.95;101826.34;5031667;28;20366;-86
2022/01/14 01:56:34;;;;;;;35.72;16.45;;;;;;;-0.57;97.54;101834.91;5032720;28;20033;-85
2022/01/14 01:59:00;;;;;;;31.83;15.18;;;;;;;-0.64;97.43;101828.88;5032451;28;20037;-87
2022/01/14 02:01:28;;;;;;;32.53;16.75;;;;;;;-0.56;98.21;101827.16;5039314;28;20095;-87
2022/01/14 02:03:54;;;;;;;43.58;17.40;;;;;;;-0.54;98.25;101822.03;5029233;28;20470;-87
2022/01/14 02:06:27;;;;;;;33.60;15.73;;;;;;;-0.59;97.95;101826.34;5017963;28;20055;-86
2022/01/14 02:08:52;;;;;;;36.95;16.25;;;;;;;-0.60;98.13;101829.75;5038680;28;20470;-87
2022/01/14 02:11:18;;;;;;;33.80;16.42;;;;;;;-0.57;98.41;101824.59;5032439;28;20057;-86
2022/01/14 02:13:44;;;;;;;32.58;15.07;;;;;;;-0.55;98.63;101826.34;5025563;28;20038;-85
2022/01/14 02:16:18;;;;;;;42.58;16.73;;;;;;;-0.54;98.24;101817.75;5021124;28;22004;-86
2022/01/14 02:24:19;;;;;;;30.52;15.02;;;;;;;-0.58;97.77;101818.59;5034094;28;20102;-86
2022/01/14 02:26:49;;;;;;;28.88;13.75;;;;;;;-0.68;97.11;101828.84;5032180;28;20040;-88
2022/01/14 02:29:18;;;;;;;27.92;14.55;;;;;;;-0.71;97.30;101827.13;5011858;28;20167;-86
2022/01/14 02:31:49;;;;;;;35.78;16.52;;;;;;;-0.73;97.62;101821.13;5026888;28;20099;-88
2022/01/14 02:34:15;;;;;;;38.15;17.67;;;;;;;-0.68;98.61;101816.81;5031178;28;20116;-86
2022/01/14 02:36:45;;;;;;;41.63;17.95;;;;;;;-0.68;98.44;101806.53;5033299;28;20022;-86
2022/01/14 02:39:12;;;;;;;41.20;18.70;;;;;;;-0.60;98.73;101806.56;5028098;28;20049;-87
2022/01/14 02:41:39;;;;;;;57.42;19.50;;;;;;;-0.64;98.17;101794.53;5026585;28;20374;-86
2022/01/14 02:44:09;;;;;;;52.92;20.17;;;;;;;-0.73;96.90;101795.34;5035366;28;20057;-87
2022/01/14 02:46:39;;;;;;;52.05;18.95;;;;;;;-0.80;96.97;101801.34;5045412;28;20038;-86
2022/01/14 02:49:05;;;;;;;41.13;17.80;;;;;;;-0.90;96.81;101800.41;5030023;28;20056;-86
2022/01/14 02:51:31;;;;;;;44.47;17.77;;;;;;;-1.03;96.16;101796.09;5030132;28;20108;-87
2022/01/14 02:54:10;;;;;;;42.85;16.80;;;;;;;-1.12;96.24;101796.88;5030307;28;20076;-86
2022/01/14 02:56:37;;;;;;;39.20;18.33;;;;;;;-1.22;96.67;101793.41;5031263;28;20037;-87
2022/01/14 02:59:03;;;;;;;52.10;21.80;;;;;;;-1.29;96.70;101795.94;5028530;28;20033;-86
2022/01/14 03:01:29;;;;;;;48.17;21.75;;;;;;;-1.32;96.70;101793.34;5026361;28;20064;-87
2022/01/14 03:03:57;;;;;;;41.63;19.63;;;;;;;-1.30;96.90;101786.47;5037876;28;20067;-86
2022/01/14 03:06:23;;;;;;;41.72;18.83;;;;;;;-1.31;96.82;101782.19;5026525;28;20021;-86
2022/01/14 03:08:48;;;;;;;42.28;18.30;;;;;;;-1.23;97.95;101780.50;5028884;28;20040;-87
2022/01/14 03:11:29;;;;;;;43.88;18.73;;;;;;;-1.26;97.49;101789.09;5021808;28;20482;-86
2022/01/14 03:13:56;;;;;;;42.63;17.60;;;;;;;-1.21;98.26;101786.53;5034855;28;20039;-86
2022/01/14 03:16:22;;;;;;;43.70;17.80;;;;;;;-1.16;98.13;101781.41;5028946;28;20029;-87
2022/01/14 03:18:51;;;;;;;43.33;17.73;;;;;;;-1.15;97.78;101777.97;5030154;28;20558;-87
2022/01/14 03:21:25;;;;;;;;;;;;;;;-1.18;97.77;101778.00;5024936;28;20465;-88
2022/01/14 03:23:51;;;;;;;38.50;17.70;;;;;;;-1.12;98.53;101778.84;5031733;28;19921;-87
2022/01/14 03:26:19;;;;;;;42.13;18.80;;;;;;;-1.12;97.85;101772.84;5030649;28;20084;-88
2022/01/14 03:28:47;;;;;;;40.08;19.08;;;;;;;-1.10;98.22;101772.03;5030558;28;20454;-86
2022/01/14 03:31:12;;;;;;;44.13;18.88;;;;;;;-1.08;98.46;101777.16;5041856;28;20040;-87
2022/01/14 03:33:39;;;;;;;44.47;17.90;;;;;;;-1.11;98.01;101775.44;5029908;28;20025;-87
2022/01/14 03:36:06;;;;;;;36.15;17.40;;;;;;;-1.14;97.42;101770.28;5040500;28;20068;-86
2022/01/14 03:38:33;;;;;;;39.45;16.83;;;;;;;-1.10;98.35;101771.16;5023775;28;20393;-85
2022/01/14 03:41:02;;;;;;;44.38;18.90;;;;;;;-1.09;98.71;101771.16;5032307;28;20057;-85
2022/01/14 03:43:31;;;;;;;42.95;18.77;;;;;;;-1.07;98.64;101773.75;5028592;28;20564;-87
2022/01/14 03:45:58;;;;;;;40.00;18.65;;;;;;;-1.10;98.26;101766.88;5030820;28;20381;-86
2022/01/14 03:48:24;;;;;;;36.90;16.60;;;;;;;-1.10;98.37;101769.44;5016796;28;20022;-86
2022/01/14 03:50:50;;;;;;;38.53;17.33;;;;;;;-1.13;98.01;101771.13;5031123;28;20121;-86
2022/01/14 03:53:40;;;;;;;36.15;16.42;;;;;;;-1.17;97.88;101764.25;5028502;28;20063;-86
2022/01/14 03:56:06;;;;;;;44.60;16.83;;;;;;;-1.06;98.95;101772.91;5036616;28;20037;-87
2022/01/14 03:58:32;;;;;;;45.45;18.55;;;;;;;-0.96;99.50;101769.53;5038394;28;20033;-87
2022/01/14 04:00:57;;;;;;;40.08;17.45;;;;;;;-0.97;99.19;101772.91;5051382;28;20052;-87
2022/01/14 04:03:23;;;;;;;45.83;19.20;;;;;;;-1.00;98.79;101778.09;5020346;28;20060;-83
2022/01/14 04:05:48;;;;;;;52.38;24.85;;;;;;;-1.04;98.30;101774.63;5027519;28;20168;-85
2022/01/14 04:08:14;;;;;;;42.78;19.67;;;;;;;-1.06;98.27;101768.59;5030801;28;20038;-86
2022/01/14 04:10:40;;;;;;;46.67;19.45;;;;;;;-0.97;99.21;101767.78;5037975;28;20036;-86
2022/01/14 04:13:14;;;;;;;43.75;17.40;;;;;;;-0.95;99.00;101770.38;5028441;28;20161;-86
2022/01/14 04:15:45;;;;;;;42.72;18.70;;;;;;;-0.97;98.63;101763.47;5025973;28;20077;-86
2022/01/14 04:18:13;;;;;;;42.85;18.92;;;;;;;-0.97;98.46;101763.47;5020076;28;20056;-87
2022/01/14 04:20:42;;;;;;;41.35;16.83;;;;;;;-0.92;99.28;101754.94;5020304;28;20117;-87
2022/01/14 04:23:08;;;;;;;;;;;;;;;-0.92;98.73;101752.38;5014276;28;20030;-87
2022/01/14 04:25:36;;;;;;;39.53;16.40;;;;;;;-0.97;98.28;101750.59;5032558;28;19913;-86
2022/01/14 04:28:03;;;;;;;43.28;19.45;;;;;;;-1.01;97.85;101750.59;5021734;28;20526;-86
2022/01/14 04:30:31;;;;;;;45.67;21.05;;;;;;;-1.10;97.52;101746.28;5033520;28;20033;-86
2022/01/14 04:32:58;;;;;;;39.67;19.98;;;;;;;-1.19;97.04;101735.94;5035564;28;20044;-87
2022/01/14 04:35:25;;;;;;;43.65;19.33;;;;;;;-1.23;97.17;101736.75;5037182;28;20052;-88
2022/01/14 04:37:50;;;;;;;33.60;15.48;;;;;;;-1.28;97.24;101725.59;5027983;28;20157;-86
2022/01/14 04:40:16;;;;;;;39.30;17.40;;;;;;;-1.35;97.37;101729.00;5032734;28;20500;-86
2022/01/14 04:42:45;;;;;;;39.10;16.63;;;;;;;-1.36;97.25;101729.84;5033377;28;20397;-87
2022/01/14 04:45:26;;;;;;;44.70;18.35;;;;;;;-1.39;97.44;101724.69;5006907;28;20069;-86
2022/01/14 04:47:52;;;;;;;34.33;15.55;;;;;;;-1.39;97.51;101724.69;5035616;28;20032;-86
2022/01/14 04:50:19;;;;;;;41.75;18.08;;;;;;;-1.38;97.95;101728.97;5017232;28;20030;-88
2022/01/14 04:52:47;;;;;;;37.78;17.17;;;;;;;-1.40;97.83;101722.97;5029045;28;20387;-87
2022/01/14 04:55:17;;;;;;;35.00;15.63;;;;;;;-1.39;97.96;101724.69;5032488;28;20158;-87
2022/01/14 04:57:46;;;;;;;36.58;16.35;;;;;;;-1.40;97.99;101718.69;5025905;28;20452;-86
2022/01/14 05:00:20;;;;;;;31.05;15.07;;;;;;;-1.37;98.59;101718.72;5036680;28;20029;-88
2022/01/14 05:02:46;;;;;;;45.47;18.77;;;;;;;-1.31;98.47;101720.44;5025680;28;20037;-87
2022/01/14 05:05:12;;;;;;;43.13;17.42;;;;;;;-1.30;98.79;101712.75;5033256;28;20059;-87
2022/01/14 05:07:39;;;;;;;42.00;19.08;;;;;;;-1.32;98.76;101708.44;5032204;28;20046;-87
2022/01/14 05:12:34;;;;;;;41.42;18.02;;;;;;;-1.36;98.67;101702.41;5046425;28;20049;-88
2022/01/14 05:15:00;;;;;;;50.25;19.77;;;;;;;-1.36;98.60;101699.84;5029713;28;20053;-87
2022/01/14 05:17:25;;;;;;;38.83;17.95;;;;;;;-1.39;98.73;101697.25;5042448;28;20451;-87
2022/01/14 05:19:58;;;;;;;43.90;18.25;;;;;;;-1.46;98.10;101691.19;5014267;28;20485;-87
2022/01/14 05:22:24;;;;;;;41.55;16.17;;;;;;;-1.52;98.09;101695.44;5048542;28;20042;-86
2022/01/14 05:24:50;;;;;;;37.67;17.10;;;;;;;-1.56;97.81;101688.56;5037633;28;20025;-87
2022/01/14 05:27:15;;;;;;;35.08;15.80;;;;;;;-1.59;98.09;101684.28;5043399;28;20334;-88
2022/01/14 05:29:41;;;;;;;44.92;18.15;;;;;;;-1.54;98.54;101681.75;5034311;28;20061;-87
2022/01/14 05:32:20;;;;;;;46.83;19.33;;;;;;;-1.60;98.12;101673.97;5050046;28;20034;-86
2022/01/14 05:34:46;;;;;;;44.10;19.85;;;;;;;-1.62;98.28;101676.56;5033863;28;20034;-87
2022/01/14 05:37:14;;;;;;;49.72;19.90;;;;;;;-1.67;97.86;101683.38;5034996;28;20109;-87
2022/01/14 05:39:42;;;;;;;46.05;24.58;;;;;;;-1.68;98.48;101686.78;5033408;28;20040;-85
2022/01/14 05:42:09;;;;;;;43.33;19.73;;;;;;;-1.65;98.29;101688.53;5031502;28;20037;-87
2022/01/14 05:44:41;;;;;;;43.42;18.83;;;;;;;-1.65;98.62;101689.38;5032889;28;20053;-89
2022/01/14 05:47:07;;;;;;;47.63;20.00;;;;;;;-1.65;98.54;101693.69;5019991;28;20103;-86
2022/01/14 05:49:35;;;;;;;48.92;19.65;;;;;;;-1.65;98.75;101701.38;5034228;28;20089;-86
2022/01/14 05:52:01;;;;;;;46.90;18.60;;;;;;;-1.60;99.04;101702.25;5027358;28;20032;-86
2022/01/14 05:54:29;;;;;;;45.40;18.90;;;;;;;-1.64;98.53;101701.38;5036689;28;20263;-86
2022/01/14 05:56:54;;;;;;;46.22;19.38;;;;;;;-1.66;98.52;101691.97;5040595;28;20048;-86
2022/01/14 05:59:25;;;;;;;42.90;19.65;;;;;;;-1.66;98.46;101703.09;5030817;28;20029;-87
2022/01/14 06:01:51;;;;;;;45.42;18.75;;;;;;;-1.61;99.06;101713.41;5033950;28;20079;-86
2022/01/14 06:04:16;;;;;;;35.00;17.52;;;;;;;-1.63;99.12;101703.13;5024201;28;20033;-85
2022/01/14 06:06:45;;;;;;;41.58;19.63;;;;;;;-1.63;98.78;101708.28;5033414;28;20021;-85
2022/01/14 06:09:10;;;;;;;36.00;17.20;;;;;;;-1.62;98.53;101715.13;5030077;28;20049;-86
2022/01/14 06:11:36;;;;;;;40.17;20.77;;;;;;;-1.63;98.80;101697.09;5034750;28;20045;-86
2022/01/14 06:14:02;;;;;;;45.55;20.55;;;;;;;-1.61;98.63;101700.56;5037589;28;20107;-86
2022/01/14 06:16:27;;;;;;;35.28;15.63;;;;;;;-1.57;99.20;101695.44;5033625;28;20049;-86
2022/01/14 06:18:56;;;;;;;50.45;19.23;;;;;;;-1.60;98.75;101697.97;5028477;28;20575;-86
2022/01/14 06:21:24;;;;;;;58.42;17.90;;;;;;;-1.35;100.00;101698.97;5042527;28;20066;-86
2022/01/14 06:23:52;;;;;;;44.75;18.38;;;;;;;-1.30;100.00;101697.31;5032838;28;20115;-87
2022/01/14 06:26:17;;;;;;;51.95;18.90;;;;;;;-0.80;100.00;101703.47;5023540;28;20046;-88
2022/01/14 06:28:46;;;;;;;47.65;19.10;;;;;;;-0.90;99.45;101707.72;5030828;28;20080;-87
2022/01/14 06:31:13;;;;;;;46.65;19.95;;;;;;;-0.91;99.18;101702.59;5028692;28;20033;-86
2022/01/14 06:33:39;;;;;;;49.20;19.55;;;;;;;-0.80;99.46;101696.59;5036181;28;20048;-87
2022/01/14 06:36:16;;;;;;;48.53;18.95;;;;;;;-0.75;99.19;101691.47;5035449;28;20493;-87
2022/01/14 06:38:42;;;;;;;44.72;20.25;;;;;;;-0.72;99.17;101691.47;5050704;28;20041;-88
2022/01/14 06:41:08;;;;;;;50.45;19.70;;;;;;;-0.66;99.20;101696.66;5035214;28;20511;-86
2022/01/14 06:43:35;;;;;;;44.72;18.70;;;;;;;-0.53;99.69;101693.22;5044694;28;20079;-86
2022/01/14 06:46:01;;;;;;;49.22;20.40;;;;;;;-0.40;98.97;101688.97;5024092;28;20040;-88
2022/01/14 06:48:27;;;;;;;46.53;20.17;;;;;;;-0.31;98.48;101683.78;5029589;28;20377;-87
2022/01/14 06:50:57;;;;;;;49.92;20.40;;;;;;;-0.20;98.72;101690.69;5029877;28;20119;-86
2022/01/14 06:53:23;;;;;;;42.95;18.88;;;;;;;-0.12;97.84;101687.22;5023269;28;20033;-85
2022/01/14 06:55:51;;;;;;;48.00;20.55;;;;;;;-0.02;96.77;101693.25;5036831;28;20048;-87
2022/01/14 06:58:17;;;;;;;52.15;21.27;;;;;;;0.06;96.70;101683.78;5029739;28;20053;-87
2022/01/14 07:00:43;;;;;;;50.13;21.10;;;;;;;0.17;96.38;101697.53;5026477;28;20065;-84
2022/01/14 07:03:08;;;;;;;53.65;20.00;;;;;;;0.21;95.94;101690.66;5030306;28;20378;-86
2022/01/14 07:06:07;;;;;;;45.55;19.80;;;;;;;0.26;96.15;101685.47;5038731;28;20063;-86
2022/01/14 07:08:37;;;;;;;48.55;22.13;;;;;;;0.33;95.57;101688.03;4996697;28;20362;-88
2022/01/14 07:11:10;;;;;;;56.05;21.23;;;;;;;0.38;95.53;101693.22;5035829;28;20446;-87
2022/01/14 07:13:36;;;;;;;52.80;21.67;;;;;;;0.41;95.30;101688.03;5035526;28;20030;-88
2022/01/14 07:18:49;;;;;;;45.10;19.58;;;;;;;0.45;94.94;101687.16;5017041;28;20038;-88
2022/01/14 07:22:04;;;;;;;44.70;19.75;;;;;;;0.47;95.22;101685.44;5033867;28;20119;-88
2022/01/14 07:24:30;;;;;;;44.70;18.88;;;;;;;0.48;95.19;101684.56;5013079;28;20140;-87
2022/01/14 07:26:55;;;;;;;55.28;21.15;;;;;;;0.49;94.29;101675.97;5039159;28;20033;-87
2022/01/14 07:29:21;;;;;;;55.97;21.35;;;;;;;0.52;94.41;101675.09;5049168;28;20393;-88
2022/01/14 07:32:12;;;;;;;49.92;20.77;;;;;;;0.58;94.99;101677.66;5027752;28;20111;-90
2022/01/14 07:35:07;;;;;;;51.85;20.83;;;;;;;0.65;95.35;101679.34;5032271;28;20037;-87
2022/01/14 07:37:35;;;;;;;49.35;20.70;;;;;;;0.65;94.62;101671.59;5027615;28;20243;-88
2022/01/14 07:40:39;;;;;;;51.07;20.77;;;;;;;0.66;94.18;101676.75;5035221;28;20026;-88
2022/01/14 07:43:07;;;;;;;43.58;19.83;;;;;;;0.68;94.67;101681.94;5033311;28;20417;-89
2022/01/14 07:45:33;;;;;;;48.95;20.13;;;;;;;0.68;93.98;101684.50;5033912;28;20038;-86
2022/01/14 07:48:06;;;;;;;45.88;19.73;;;;;;;0.66;93.87;101684.50;5032941;28;20037;-87
2022/01/14 07:50:34;;;;;;;47.10;19.38;;;;;;;0.72;94.00;101684.50;5044787;28;20059;-86
2022/01/14 07:53:00;;;;;;;46.00;21.88;;;;;;;0.72;94.28;101693.97;5024634;28;20085;-86
2022/01/14 07:55:35;;;;;;;47.28;20.27;;;;;;;0.76;93.36;101693.06;5023603;28;20044;-87
2022/01/14 07:58:09;;;;;;;50.72;19.38;;;;;;;0.80;93.78;101693.94;5032661;28;20114;-87
2022/01/14 08:00:36;;;;;;;50.40;21.63;;;;;;;0.79;93.35;101694.81;5037515;28;20489;-86
2022/01/14 08:03:02;;;;;;;51.65;20.92;;;;;;;0.79;93.48;101687.91;5035399;28;20060;-86
2022/01/14 08:05:36;;;;;;;45.95;21.38;;;;;;;0.76;93.36;101697.38;5028688;28;20033;-87
2022/01/14 08:08:07;;;;;;;51.28;21.30;;;;;;;0.82;93.60;101712.88;5031410;28;20055;-88
2022/01/14 08:10:43;;;;;;;44.35;19.15;;;;;;;0.83;93.25;101715.44;5032705;28;20074;-86
2022/01/14 08:13:08;;;;;;;48.15;21.08;;;;;;;0.87;93.77;101717.13;5029186;28;20045;-87
2022/01/14 08:15:34;;;;;;;44.17;21.27;;;;;;;0.89;93.34;101720.59;5036281;28;20476;-86
2022/01/14 08:18:09;;;;;;;46.53;20.83;;;;;;;0.95;93.26;101719.69;5026440;28;20064;-87
2022/01/14 08:20:38;;;;;;;53.90;22.55;;;;;;;0.89;92.96;101712.84;5036287;28;20514;-87
2022/01/14 08:23:15;;;;;;;50.10;21.08;;;;;;;0.93;93.67;101721.44;5033994;28;20068;-86
2022/01/14 08:25:47;;;;;;;55.47;20.88;;;;;;;1.00;92.92;101710.19;5041354;28;20494;-86
2022/01/14 08:28:12;;;;;;;55.80;21.33;;;;;;;0.95;93.45;101722.25;5035692;28;20117;-86
2022/01/14 08:30:43;;;;;;;54.20;24.27;;;;;;;0.97;93.57;101715.38;5038518;28;20025;-87
2022/01/14 08:33:13;;;;;;;60.83;24.95;;;;;;;0.95;93.41;101740.34;5018631;28;20109;-86
2022/01/14 08:35:44;;;;;;;47.55;21.58;;;;;;;0.94;93.19;101736.91;5039042;28;20498;-87
2022/01/14 08:38:21;;;;;;;59.08;25.00;;;;;;;0.99;93.65;101739.47;5039382;28;20068;-87
2022/01/14 08:40:52;;;;;;;56.22;23.63;;;;;;;1.02;93.53;101736.03;5037073;28;20116;-88
2022/01/14 08:43:20;;;;;;;47.00;22.65;;;;;;;1.04;93.16;101745.50;5042899;28;20033;-85
2022/01/14 08:45:50;;;;;;;50.63;23.98;;;;;;;1.06;92.89;101753.22;5028785;28;20025;-85
2022/01/14 08:48:30;;;;;;;46.72;20.85;;;;;;;1.09;92.75;101759.22;5036150;28;20112;-86
2022/01/14 08:51:06;;;;;;;54.70;22.95;;;;;;;1.04;92.95;101754.94;5016828;28;20378;-87
2022/01/14 08:53:35;;;;;;;49.63;23.35;;;;;;;1.06;93.09;101751.50;5049570;28;20038;-86
2022/01/14 08:56:03;;;;;;;49.72;21.98;;;;;;;1.06;92.95;101748.91;5037002;28;20041;-88
2022/01/14 08:58:47;;;;;;;;;;;;;;;;;;;;;
2022/01/14 09:01:32;;;;;;;45.50;22.75;;;;;;;1.14;92.80;101749.72;5025174;28;20110;-86
2022/01/14 09:04:08;;;;;;;49.85;23.05;;;;;;;1.16;92.95;101742.84;5056830;28;20120;-88
2022/01/14 09:06:43;;;;;;;49.05;23.25;;;;;;;1.19;92.71;101744.56;5039206;28;20119;-86
2022/01/14 09:09:12;;;;;;;48.33;20.17;;;;;;;1.20;92.38;101746.28;5008394;28;20038;-87
2022/01/14 09:12:02;;;;;;;49.03;22.88;;;;;;;1.20;92.87;101741.97;5033530;28;20034;-87
2022/01/14 09:14:33;;;;;;;54.05;23.48;;;;;;;1.25;92.62;101735.91;5028427;28;20064;-86
2022/01/14 09:17:20;;;;;;;52.10;23.20;;;;;;;1.29;92.70;101733.28;5031441;28;20405;-88
2022/01/14 09:19:49;;;;;;;49.45;22.30;;;;;;;1.30;92.67;101742.78;5043259;28;20461;-87
2022/01/14 09:22:30;;;;;;;;;;;;;;;;;;;;;
2022/01/14 09:25:14;;;;;;;45.15;21.45;;;;;;;1.33;91.81;101734.13;5022547;28;20100;-87
2022/01/14 09:27:50;;;;;;;;;;;;;;;;;;;;;
2022/01/14 09:30:20;;;;;;;51.45;22.70;;;;;;;1.44;91.64;101728.03;5038853;28;20063;-88
2022/01/14 09:32:49;;;;;;;49.97;22.67;;;;;;;1.52;91.05;101716.78;5043622;28;20033;-85
2022/01/14 09:35:16;;;;;;;49.10;22.35;;;;;;;1.56;90.98;101716.78;5034373;28;20141;-87
2022/01/14 09:37:45;;;;;;;48.45;22.65;;;;;;;1.59;91.24;101724.50;5026758;28;20383;-86
2022/01/14 09:40:17;;;;;;;53.08;24.77;;;;;;;1.63;90.99;101730.50;5028296;28;20037;-86
2022/01/14 09:43:02;;;;;;;53.80;23.52;;;;;;;1.65;90.81;101727.03;5041137;28;20025;-85
2022/01/14 09:45:44;;;;;;;46.30;23.35;;;;;;;1.69;90.27;101722.72;5027795;28;20033;-86
2022/01/14 09:48:39;;;;;;;48.28;22.88;;;;;;;1.72;90.35;101724.44;5018356;28;20084;-87
2022/01/14 09:51:11;;;;;;;47.92;22.83;;;;;;;1.72;90.17;101734.78;5034928;28;20497;-86
2022/01/14 09:53:44;;;;;;;51.17;23.10;;;;;;;1.69;90.67;101730.47;5038978;28;20095;-89
2022/01/14 09:56:15;;;;;;;44.65;22.65;;;;;;;1.67;90.13;101734.81;5022401;28;20083;-87
2022/01/14 09:58:46;;;;;;;47.03;22.67;;;;;;;1.69;90.37;101731.31;5024212;28;20056;-87
2022/01/14 10:04:39;;;;;;;44.70;21.33;;;;;;;1.74;90.09;101727.84;4945791;28;20102;-87
2022/01/14 10:07:20;;;;;;;50.63;21.58;;;;;;;1.73;90.00;101732.16;4958309;28;20146;-88
2022/01/14 10:10:06;;;;;;;47.35;21.52;;;;;;;1.79;90.13;101728.69;4945049;28;20063;-88
2022/01/14 10:12:37;;;;;;;50.30;21.27;;;;;;;1.81;89.90;101724.34;4953702;29;20531;-86
2022/01/14 10:15:20;;;;;;;43.83;20.75;;;;;;;1.88;89.70;101720.84;4959340;28;20065;-90
2022/01/14 10:18:06;;;;;;;46.67;20.95;;;;;;;1.96;89.86;101720.78;4950151;29;20059;-88
2022/01/14 10:20:40;;;;;;;45.97;21.38;;;;;;;1.98;89.82;101722.50;4952192;28;20411;-88
2022/01/14 10:23:10;;;;;;;48.63;21.55;;;;;;;2.00;89.29;101720.72;4950073;28;20057;-88
2022/01/14 10:25:38;;;;;;;;;;;;;;;2.05;89.28;101716.41;4955202;28;20035;-87
2022/01/14 10:28:49;;;;;;;;;;;;;;;;;;;;;
2022/01/14 10:31:24;;;;;;;39.55;18.75;;;;;;;2.18;89.23;101719.72;4941342;29;20118;-88
2022/01/14 10:34:06;;;;;;;43.45;19.85;;;;;;;2.22;89.10;101725.72;4947638;28;20035;-88
2022/01/14 10:36:39;;;;;;;43.50;20.02;;;;;;;2.27;89.21;101726.56;4943143;29;20046;-87
2022/01/14 10:39:37;;;;;;;41.85;20.08;;;;;;;2.32;89.11;101727.38;4951000;28;20473;-85
2022/01/14 10:42:25;;;;;;;45.03;20.90;;;;;;;2.36;88.76;101711.78;5003130;28;20042;-86
2022/01/14 10:44:51;;;;;;;50.33;23.02;;;;;;;2.45;88.82;101697.03;5034319;28;20037;-86
2022/01/14 10:47:28;;;;;;;53.30;23.80;;;;;;;2.50;88.55;101700.44;5038685;28;20096;-88
2022/01/14 10:50:19;;;;;;;48.30;24.65;;;;;;;2.57;88.15;101710.72;5053965;28;20067;-87
2022/01/14 10:52:52;;;;;;;55.13;26.52;;;;;;;2.60;88.33;101699.47;5014903;28;20494;-87
2022/01/14 10:56:07;;;;;;;53.92;27.83;;;;;;;2.65;88.08;101690.75;5025788;28;20124;-87
2022/01/14 10:59:05;;;;;;;67.55;26.77;;;;;;;2.71;87.44;101687.25;5011329;28;20041;-90
2022/01/14 11:01:34;;;;;;;54.13;25.65;;;;;;;2.74;87.49;101688.94;5038915;28;20045;-87
2022/01/14 11:04:13;;;;;;;51.33;25.63;;;;;;;2.75;87.56;101680.31;5027368;28;20030;-88
2022/01/14 11:06:45;;;;;;;51.25;25.98;;;;;;;2.80;87.30;101684.53;5031710;28;20025;-87
2022/01/14 11:09:22;;;;;;;50.97;25.23;;;;;;;2.88;87.58;101692.22;5017427;28;20103;-87
2022/01/14 11:12:01;;;;;;;47.78;22.80;;;;;;;2.89;87.07;101679.25;5034639;28;20033;-89
2022/01/14 11:15:27;;;;;;;46.65;22.70;;;;;;;2.81;87.06;101683.66;5037477;28;20037;-88
2022/01/14 11:18:27;;;;;;;42.90;21.30;;;;;;;2.82;87.29;101667.25;4916992;29;20622;-87
2022/01/14 11:23:40;;;;;;;48.17;20.92;;;;;;;2.86;86.81;101679.28;4929898;29;20051;-87
2022/01/14 11:26:15;;;;;;;41.72;21.33;;;;;;;2.90;86.70;101677.53;4922771;29;20135;-87
2022/01/14 11:28:51;;;;;;;40.88;18.50;;;;;;;2.82;86.91;101676.78;4932395;29;20059;-87
2022/01/14 11:32:03;;;;;;;;;;;;;;;;;;;;;
2022/01/14 11:34:32;;;;;;;40.08;18.95;;;;;;;2.79;86.81;101690.59;4950148;29;20039;-85
2022/01/14 11:37:10;;;;;;;33.30;18.63;;;;;;;2.81;87.08;101673.28;4926330;29;20346;-89
2022/01/14 11:40:00;;;;;;;37.05;19.38;;;;;;;2.81;86.93;101678.47;4937402;29;20127;-89
2022/01/14 11:45:47;;;;;;;34.75;18.58;;;;;;;2.77;86.90;101678.53;4910430;29;20453;-89
2022/01/14 11:49:29;;;;;;;35.92;17.70;;;;;;;2.79;86.51;101675.06;4931459;29;20183;-88
2022/01/14 11:52:36;;;;;;;36.95;17.38;;;;;;;2.85;86.69;101681.88;4918129;29;20043;-88
2022/01/14 11:55:29;;;;;;;37.03;18.08;;;;;;;2.85;86.70;101669.78;4990073;28;20048;-87
2022/01/14 12:00:56;;;;;;;31.88;16.27;;;;;;;3.00;85.63;101671.31;5026281;28;20025;-88
2022/01/14 12:04:01;;;;;;;36.78;18.80;;;;;;;2.98;85.35;101659.28;5031533;28;20075;-87
2022/01/14 12:06:54;;;;;;;35.17;17.45;;;;;;;2.93;85.36;101656.75;4961429;28;20387;-89
2022/01/14 12:10:14;;;;;;;35.83;17.67;;;;;;;2.94;85.44;101658.47;5031191;28;20061;-89
2022/01/14 12:13:14;;;;;;;;;;;;;;;;;;;;;
2022/01/14 12:16:11;;;;;;;30.38;16.35;;;;;;;2.94;85.61;101623.94;5034288;28;20033;-89
2022/01/14 12:19:17;;;;;;;34.80;15.50;;;;;;;3.00;85.13;101629.88;4969470;28;20046;-89
2022/01/14 12:29:08;;;;;;;33.22;15.85;;;;;;;3.14;83.98;101635.72;4976737;28;20040;-87
2022/01/14 12:32:07;;;;;;;29.27;15.25;;;;;;;2.97;83.73;101629.06;4970470;28;20054;-87
2022/01/14 12:34:42;;;;;;;;;;;;;;;3.01;83.73;101638.53;4960265;28;20054;-87